Time;durP1;ratioP1;P1;durP2;ratioP2;P2;SDS_P1;SDS_P2;PMS_P1;PMS_P2;Temp;Humidity;BMP_temperature;BMP_pressure;BME280_temperature;BME280_humidity;BME280_pressure;Samples;Min_cycle;Max_cycle;Signal;HPM_P1;HPM_P2
2021/10/01 00:00:24;;;;;;;;;;;;;;;10.70;100.00;101393.94;1631561;86;20187;-82
2021/10/01 00:02:50;;;;;;;;;;;;;;;10.68;100.00;101405.12;1633520;86;20363;-82
2021/10/01 00:05:15;;;;;;;;;;;;;;;10.77;100.00;101394.29;1626834;86;20137;-81
2021/10/01 00:07:48;;;;;;;;;;;;;;;10.80;100.00;101399.32;1629245;86;20546;-86
2021/10/01 00:10:10;;;;;;;;;;;;;;;10.80;100.00;101405.06;1628761;86;20726;-82
2021/10/01 00:12:38;;;;;;;;;;;;;;;10.77;100.00;101400.40;1633378;87;21113;-83
2021/10/01 00:15:05;;;;;;;;;;;;;;;10.72;100.00;101402.59;1633080;86;21091;-83
2021/10/01 00:17:32;;;;;;;;;;;;;;;10.66;100.00;101403.09;1634668;86;20234;-84
2021/10/01 00:19:58;;;;;;;;;;;;;;;10.51;100.00;101405.17;1634086;86;20183;-85
2021/10/01 00:22:25;;;;;;;;;;;;;;;10.44;100.00;101402.70;1631314;86;20451;-82
2021/10/01 00:24:52;;;;;;;;;;;;;;;10.46;100.00;101399.44;1633003;86;21874;-82
2021/10/01 00:27:18;;;;;;;;;;;;;;;10.40;100.00;101399.44;1631244;86;20236;-84
2021/10/01 00:29:46;;;;;;;;;;;;;;;10.23;100.00;101393.34;1632654;86;20164;-83
2021/10/01 00:32:13;;;;;;;;;;;;;;;10.22;100.00;101391.65;1623312;87;20185;-83
2021/10/01 00:34:40;;;;;;;;;;;;;;;10.29;100.00;101382.78;1611409;89;20583;-85
2021/10/01 00:37:06;;;;;;;;;;;;;;;10.30;100.00;101385.30;1622699;86;21081;-82
2021/10/01 00:39:32;;;;;;;;;;;;;;;10.29;100.00;101382.78;1619625;86;20470;-84
2021/10/01 00:41:57;;;;;;;;;;;;;;;10.17;100.00;101376.67;1624918;86;20207;-82
2021/10/01 00:44:23;;;;;;;;;;;;;;;10.13;100.00;101371.27;1593866;87;20163;-81
2021/10/01 00:46:48;;;;;;;;;;;;;;;10.16;100.00;101373.66;1615909;86;20757;-85
2021/10/01 00:49:14;;;;;;;;;;;;;;;10.20;100.00;101372.47;1634077;86;21984;-83
2021/10/01 00:51:42;;;;;;;;;;;;;;;10.16;100.00;101371.02;1633153;87;20175;-83
2021/10/01 00:54:10;;;;;;;;;;;;;;;10.07;100.00;101373.94;1635968;86;20204;-83
2021/10/01 00:56:37;;;;;;;;;;;;;;;9.94;100.00;101374.05;1631620;86;20230;-84
2021/10/01 00:59:02;;;;;;;;;;;;;;;9.94;100.00;101370.09;1604708;87;20222;-81
2021/10/01 01:01:28;;;;;;;;;;;;;;;9.89;100.00;101367.00;1634630;86;21782;-81
2021/10/01 01:03:56;;;;;;;;;;;;;;;9.83;100.00;101367.48;1630990;86;20171;-83
2021/10/01 01:06:46;;;;;;;;;;;;;;;9.79;100.00;101366.03;1598838;87;20198;-82
2021/10/01 01:09:25;;;;;;;;;;;;;;;9.79;100.00;101372.63;1621521;86;20510;-83
2021/10/01 01:12:06;;;;;;;;;;;;;;;9.67;100.00;101368.69;1629372;86;20705;-83
2021/10/01 01:14:41;;;;;;;;;;;;;;;9.64;100.00;101371.56;1615923;87;21406;-82
2021/10/01 01:17:07;;;;;;;;;;;;;;;9.61;100.00;101369.16;1616663;87;20227;-81
2021/10/01 01:20:09;;;;;;;;;;;;;;;9.67;100.00;101371.32;1620682;87;20134;-83
2021/10/01 01:22:41;;;;;;;;;;;;;;;9.61;100.00;101365.20;1632859;87;20193;-83
2021/10/01 01:25:32;;;;;;;;;;;;;;;9.52;100.00;101369.88;1631615;86;20184;-84
2021/10/01 01:28:09;;;;;;;;;;;;;;;9.56;100.00;101363.91;1638070;86;20473;-87
2021/10/01 01:30:47;;;;;;;;;;;;;;;9.60;100.00;101367.50;1602423;87;20218;-82
2021/10/01 01:33:14;;;;;;;;;;;;;;;9.53;100.00;101370.25;1626501;86;20240;-83
2021/10/01 01:35:40;;;;;;;;;;;;;;;9.50;100.00;101364.72;1602397;88;20175;-83
2021/10/01 01:38:11;;;;;;;;;;;;;;;9.54;100.00;101364.02;1633960;86;20195;-82
2021/10/01 01:40:36;;;;;;;;;;;;;;;9.55;100.00;101367.00;1645620;86;21351;-83
2021/10/01 01:43:06;;;;;;;;;;;;;;;9.48;100.00;101366.65;1636392;86;20146;-86
2021/10/01 01:45:35;;;;;;;;;;;;;;;9.41;100.00;101363.28;1632727;87;20352;-82
2021/10/01 01:47:59;;;;;;;;;;;;;;;9.34;100.00;101361.12;1636780;85;20270;-86
2021/10/01 01:50:26;;;;;;;;;;;;;;;9.33;100.00;101363.39;1637432;86;21216;-81
2021/10/01 01:52:52;;;;;;;;;;;;;;;9.29;100.00;101361.11;1604954;87;21302;-81
2021/10/01 01:55:17;;;;;;;;;;;;;;;9.27;100.00;101357.76;1627308;86;20205;-82
2021/10/01 01:57:46;;;;;;;;;;;;;;;9.29;100.00;101356.70;1633864;86;20187;-88
2021/10/01 02:00:12;;;;;;;;;;;;;;;9.27;100.00;101366.98;1649382;86;20211;-82
2021/10/01 02:02:40;;;;;;;;;;;;;;;9.25;100.00;101362.31;1626236;86;20227;-81
2021/10/01 02:05:05;;;;;;;;;;;;;;;9.29;100.00;101361.97;1624180;86;20149;-83
2021/10/01 02:07:31;;;;;;;;;;;;;;;9.28;100.00;101364.72;1624833;86;20326;-80
2021/10/01 02:09:57;;;;;;;;;;;;;;;9.33;100.00;101365.19;1630576;86;20170;-81
2021/10/01 02:12:23;;;;;;;;;;;;;;;9.38;100.00;101362.20;1606263;87;20181;-80
2021/10/01 02:14:50;;;;;;;;;;;;;;;9.40;100.00;101369.05;1629470;86;20191;-83
2021/10/01 02:17:17;;;;;;;;;;;;;;;9.41;100.00;101375.15;1600868;87;22036;-83
2021/10/01 02:19:43;;;;;;;;;;;;;;;9.44;100.00;101377.55;1575099;88;20138;-84
2021/10/01 02:22:08;;;;;;;;;;;;;;;9.44;100.00;101380.19;1621105;87;20559;-83
2021/10/01 02:24:34;;;;;;;;;;;;;;;9.43;100.00;101379.36;1646020;86;20146;-83
2021/10/01 02:27:12;;;;;;;;;;;;;;;9.46;100.00;101376.94;1624378;87;20168;-81
2021/10/01 02:29:50;;;;;;;;;;;;;;;9.42;100.00;101375.03;1645672;85;21109;-83
2021/10/01 02:32:29;;;;;;;;;;;;;;;9.40;100.00;101376.95;1642915;85;20233;-82
2021/10/01 02:34:56;;;;;;;;;;;;;;;9.38;100.00;101378.02;1586904;89;20393;-82
2021/10/01 02:37:23;;;;;;;;;;;;;;;9.26;100.00;101375.84;1589932;87;20157;-85
2021/10/01 02:39:49;;;;;;;;;;;;;;;9.15;100.00;101378.83;1623712;86;20205;-81
2021/10/01 02:42:17;;;;;;;;;;;;;;;9.19;100.00;101384.70;1647576;86;21106;-80
2021/10/01 02:44:45;;;;;;;;;;;;;;;9.23;100.00;101390.56;1648094;86;20827;-81
2021/10/01 02:47:11;;;;;;;;;;;;;;;9.24;100.00;101393.09;1645005;86;20118;-84
2021/10/01 02:49:37;;;;;;;;;;;;;;;9.27;100.00;101400.76;1596506;87;20482;-81
2021/10/01 02:52:32;;;;;;;;;;;;;;;9.25;100.00;101398.73;1628730;86;20256;-85
2021/10/01 02:55:02;;;;;;;;;;;;;;;9.21;100.00;101401.23;1630915;86;21201;-83
2021/10/01 02:57:33;;;;;;;;;;;;;;;9.13;100.00;101395.70;1635986;86;20187;-82
2021/10/01 03:00:01;;;;;;;;;;;;;;;9.03;100.00;101396.05;1634507;86;20199;-83
2021/10/01 03:02:27;;;;;;;;;;;;;;;8.96;100.00;101394.34;1642251;86;20132;-83
2021/10/01 03:04:55;;;;;;;;;;;;;;;8.97;100.00;101395.54;1646283;86;20165;-82
2021/10/01 03:07:22;;;;;;;;;;;;;;;8.94;100.00;101394.94;1649104;86;21269;-85
2021/10/01 03:09:48;;;;;;;;;;;;;;;8.93;100.00;101395.42;1644884;86;20156;-85
2021/10/01 03:12:13;;;;;;;;;;;;;;;8.97;100.00;101390.27;1647090;86;20336;-82
2021/10/01 03:14:39;;;;;;;;;;;;;;;8.99;100.00;101391.47;1626178;85;20165;-82
2021/10/01 03:17:05;;;;;;;;;;;;;;;9.04;100.00;101389.32;1647662;85;20222;-82
2021/10/01 03:19:32;;;;;;;;;;;;;;;9.07;100.00;101390.90;1648074;86;21281;-85
2021/10/01 03:21:58;;;;;;;;;;;;;;;9.07;100.00;101389.09;1622784;87;20166;-82
2021/10/01 03:24:24;;;;;;;;;;;;;;;9.09;100.00;101387.66;1647841;86;20146;-85
2021/10/01 03:26:53;;;;;;;;;;;;;;;8.93;100.00;101387.52;1648175;87;20545;-82
2021/10/01 03:29:20;;;;;;;;;;;;;;;8.86;100.00;101388.92;1648186;86;20166;-83
2021/10/01 03:31:47;;;;;;;;;;;;;;;8.83;100.00;101400.17;1645944;87;21120;-81
2021/10/01 03:34:14;;;;;;;;;;;;;;;8.78;100.00;101402.66;1646456;86;20112;-83
2021/10/01 03:36:41;;;;;;;;;;;;;;;8.74;100.00;101397.73;1621531;87;20185;-82
2021/10/01 03:39:09;;;;;;;;;;;;;;;8.63;100.00;101405.94;1646473;86;20192;-81
2021/10/01 03:41:34;;;;;;;;;;;;;;;8.56;100.00;101399.46;1646614;86;20175;-84
2021/10/01 03:44:00;;;;;;;;;;;;;;;8.59;100.00;101397.06;1648400;86;21179;-82
2021/10/01 03:46:26;;;;;;;;;;;;;;;8.58;100.00;101398.86;1648583;85;20192;-81
2021/10/01 03:48:52;;;;;;;;;;;;;;;8.62;100.00;101397.70;1650185;85;20163;-84
2021/10/01 03:51:18;;;;;;;;;;;;;;;8.64;100.00;101397.58;1651163;84;20235;-83
2021/10/01 03:53:43;;;;;;;;;;;;;;;8.63;100.00;101396.72;1648549;86;20142;-83
2021/10/01 03:56:16;;;;;;;;;;;;;;;8.72;100.00;101403.60;1648706;87;21120;-81
2021/10/01 03:58:45;;;;;;;;;;;;;;;8.78;100.00;101397.39;1648120;87;20154;-86
2021/10/01 04:01:11;;;;;;;;;;;;;;;8.79;100.00;101398.22;1647730;85;20219;-81
2021/10/01 04:03:40;;;;;;;;;;;;;;;8.83;100.00;101395.73;1647804;86;20187;-82
2021/10/01 04:06:08;;;;;;;;;;;;;;;8.86;100.00;101399.46;1647105;86;20192;-81
2021/10/01 04:08:34;;;;;;;;;;;;;;;8.84;100.00;101403.16;1648569;87;20138;-85
2021/10/01 04:10:59;;;;;;;;;;;;;;;8.84;100.00;101405.78;1648696;86;20288;-83
2021/10/01 04:13:25;;;;;;;;;;;;;;;8.80;99.72;101411.28;1649375;85;20133;-83
2021/10/01 04:15:56;;;;;;;;;;;;;;;8.78;99.51;101408.42;1647330;85;20206;-81
2021/10/01 04:18:22;;;;;;;;;;;;;;;8.79;99.25;101410.08;1624549;87;20207;-81
2021/10/01 04:20:47;;;;;;;;;;;;;;;8.69;98.79;101404.66;1628985;86;21275;-81
2021/10/01 04:23:14;;;;;;;;;;;;;;;8.70;98.87;101414.70;1629246;86;20203;-84
2021/10/01 04:25:43;;;;;;;;;;;;;;;8.72;99.15;101412.82;1628920;86;20244;-81
2021/10/01 04:28:09;;;;;;;;;;;;;;;8.71;98.78;101415.08;1647719;86;20140;-82
2021/10/01 04:30:43;;;;;;;;;;;;;;;8.68;97.99;101416.62;1625819;86;20843;-82
2021/10/01 04:33:12;;;;;;;;;;;;;;;8.68;97.69;101417.94;1627299;86;20095;-83
2021/10/01 04:35:29;;;;;;;;;;;;;;;8.65;97.38;101414.21;1624778;86;20108;-82
2021/10/01 04:37:55;;;;;;;;;;;;;;;8.63;97.19;101420.42;1628952;86;20197;-81
2021/10/01 04:40:22;;;;;;;;;;;;;;;8.60;96.92;101419.33;1622421;86;20435;-88
2021/10/01 04:42:47;;;;;;;;;;;;;;;8.55;96.83;101422.78;1633071;86;20507;-81
2021/10/01 04:45:13;;;;;;;;;;;;;;;8.56;96.82;101421.84;1628645;86;21107;-83
2021/10/01 04:47:39;;;;;;;;;;;;;;;8.57;96.78;101427.45;1635398;86;20499;-82
2021/10/01 04:50:05;;;;;;;;;;;;;;;8.57;96.54;101420.03;1626491;86;20142;-81
2021/10/01 04:52:31;;;;;;;;;;;;;;;8.59;96.53;101433.92;1633728;86;20235;-83
2021/10/01 04:54:56;;;;;;;;;;;;;;;8.58;96.38;101427.82;1634421;86;20237;-82
2021/10/01 04:57:22;;;;;;;;;;;;;;;8.59;96.40;101430.83;1625492;86;21167;-81
2021/10/01 04:59:48;;;;;;;;;;;;;;;8.59;96.36;101428.66;1625864;87;20197;-82
2021/10/01 05:02:13;;;;;;;;;;;;;;;8.54;96.34;101431.62;1631250;86;20177;-86
2021/10/01 05:04:39;;;;;;;;;;;;;;;8.53;96.15;101429.95;1619394;87;20469;-82
2021/10/01 05:07:05;;;;;;;;;;;;;;;8.49;96.15;101439.02;1617875;87;20282;-82
2021/10/01 05:09:30;;;;;;;;;;;;;;;8.47;96.22;101433.03;1616567;87;21352;-81
2021/10/01 05:11:56;;;;;;;;;;;;;;;8.47;96.17;101434.35;1618217;87;20156;-82
2021/10/01 05:14:23;;;;;;;;;;;;;;;8.52;96.27;101430.07;1609205;87;20319;-82
2021/10/01 05:16:49;;;;;;;;;;;;;;;8.52;96.14;101432.70;1602005;87;20553;-82
2021/10/01 05:19:14;;;;;;;;;;;;;;;8.54;96.02;101426.36;1611650;87;20178;-81
2021/10/01 05:21:40;;;;;;;;;;;;;;;8.57;95.77;101431.40;1611819;86;21117;-82
2021/10/01 05:24:07;;;;;;;;;;;;;;;8.61;95.81;101439.94;1609003;87;20260;-82
2021/10/01 05:26:33;;;;;;;;;;;;;;;8.60;95.57;101436.44;1591697;88;20188;-84
2021/10/01 05:28:58;;;;;;;;;;;;;;;8.61;95.61;101440.77;1587537;87;21602;-82
2021/10/01 05:31:24;;;;;;;;;;;;;;;8.59;95.78;101436.09;1592071;89;20270;-81
2021/10/01 05:33:50;;;;;;;;;;;;;;;8.62;95.83;101443.77;1594736;88;21134;-82
2021/10/01 05:36:18;;;;;;;;;;;;;;;8.67;95.94;101444.76;1601653;89;20166;-82
2021/10/01 05:38:44;;;;;;;;;;;;;;;8.72;96.06;101439.16;1591445;88;20542;-84
2021/10/01 05:41:10;;;;;;;;;;;;;;;8.75;96.14;101445.52;1601327;89;20157;-84
2021/10/01 05:43:35;;;;;;;;;;;;;;;8.78;96.10;101440.85;1599064;89;20142;-83
2021/10/01 05:46:01;;;;;;;;;;;;;;;8.83;96.17;101451.54;1599444;89;21251;-83
2021/10/01 05:48:29;;;;;;;;;;;;;;;8.84;96.27;101443.52;1598929;89;21359;-83
2021/10/01 05:50:59;;;;;;;;;;;;;;;8.88;96.47;101446.27;1579690;89;20298;-85
2021/10/01 05:53:45;;;;;;;;;;;;;;;8.93;96.71;101444.16;1576399;89;20178;-85
2021/10/01 05:55:51;;;;;;;;;;;;;;;8.98;96.94;101445.14;1594350;89;20158;-83
2021/10/01 05:58:17;;;;;;;;;;;;;;;8.95;97.42;101446.20;1601488;89;21105;-87
2021/10/01 06:00:45;;;;;;;;;;;;;;;8.94;98.40;101447.14;1594891;89;20787;-85
2021/10/01 06:03:12;;;;;;;;;;;;;;;8.96;98.92;101442.63;1597035;89;20208;-87
2021/10/01 06:05:37;;;;;;;;;;;;;;;8.98;99.64;101445.97;1600911;89;20150;-83
2021/10/01 06:08:03;;;;;;;;;;;;;;;9.00;100.00;101448.98;1599317;89;20173;-83
2021/10/01 06:10:33;;;;;;;;;;;;;;;9.06;100.00;101444.54;1597036;89;20952;-82
2021/10/01 06:12:58;;;;;;;;;;;;;;;9.15;100.00;101442.08;1598818;89;20248;-83
2021/10/01 06:15:29;;;;;;;;;;;;;;;9.22;100.00;101445.58;1622356;87;20171;-84
2021/10/01 06:17:58;;;;;;;;;;;;;;;9.33;100.00;101449.06;1619915;87;20286;-83
2021/10/01 06:20:24;;;;;;;;;;;;;;;9.39;100.00;101452.21;1644414;85;20202;-81
2021/10/01 06:22:50;;;;;;;;;;;;;;;9.44;100.00;101451.38;1644443;85;21117;-83
2021/10/01 06:25:15;;;;;;;;;;;;;;;9.51;100.00;101452.60;1636216;86;20233;-85
2021/10/01 06:27:41;;;;;;;;;;;;;;;9.58;100.00;101446.37;1633632;86;20179;-86
2021/10/01 06:30:09;;;;;;;;;;;;;;;9.63;100.00;101445.52;1629540;86;20137;-84
2021/10/01 06:32:37;;;;;;;;;;;;;;;9.69;100.00;101451.19;1635820;86;20202;-85
2021/10/01 06:35:03;;;;;;;;;;;;;;;9.77;100.00;101445.33;1632363;87;21285;-84
2021/10/01 06:37:29;;;;;;;;;;;;;;;9.82;100.00;101444.94;1635049;86;20853;-88
2021/10/01 06:39:57;;;;;;;;;;;;;;;9.90;100.00;101447.84;1642120;86;20289;-84
2021/10/01 06:42:23;;;;;;;;;;;;;;;9.97;100.00;101454.30;1643457;85;20221;-84
2021/10/01 06:44:51;;;;;;;;;;;;;;;10.03;100.00;101459.09;1640300;87;20238;-84
2021/10/01 06:52:49;;;;;;;;;;;;;;;10.25;100.00;101450.80;1638945;86;20620;-84
2021/10/01 08:19:36;;;;;;;;;;;;;;;12.46;97.07;101449.13;1647753;85;20238;-82
2021/10/01 08:22:03;;;;;;;;;;;;;;;12.37;97.11;101451.27;1626327;85;21269;-82
2021/10/01 08:24:29;;;;;;;;;;;;;;;12.40;96.97;101453.65;1640799;85;20253;-85
2021/10/01 08:26:55;;;;;;;;;;;;;;;12.53;97.35;101454.71;1624218;85;20159;-83
2021/10/01 08:29:21;;;;;;;;;;;;;;;12.59;96.97;101444.06;1645571;85;20214;-85
2021/10/01 08:31:48;;;;;;;;;;;;;;;12.64;95.60;101457.23;1652955;85;21160;-81
2021/10/01 08:34:14;;;;;;;;;;;;;;;12.66;95.76;101451.80;1647013;85;21235;-81
2021/10/01 08:36:40;;;;;;;;;;;;;;;12.68;95.18;101452.02;1646234;85;20210;-81
2021/10/01 08:39:07;;;;;;;;;;;;;;;12.77;94.79;101444.20;1647786;85;20332;-83
2021/10/01 08:41:33;;;;;;;;;;;;;;;12.82;95.21;101452.56;1646983;85;20157;-88
2021/10/01 08:43:59;;;;;;;;;;;;;;;12.86;95.11;101441.55;1619908;85;20233;-80
2021/10/01 08:46:26;;;;;;;;;;;;;;;12.97;95.19;101445.05;1647201;86;21073;-82
2021/10/01 08:48:52;;;;;;;;;;;;;;;12.92;95.18;101448.94;1650426;85;20393;-81
2021/10/01 08:51:17;;;;;;;;;;;;;;;13.00;95.01;101449.57;1646972;85;20451;-81
2021/10/01 08:53:43;;;;;;;;;;;;;;;13.05;94.89;101447.36;1644436;85;20522;-81
2021/10/01 08:56:09;;;;;;;;;;;;;;;12.92;94.46;101449.44;1647175;85;20132;-82
2021/10/01 08:58:34;;;;;;;;;;;;;;;12.95;94.62;101449.66;1641769;85;21107;-83
2021/10/01 09:01:00;;;;;;;;;;;;;;;13.01;94.43;101447.28;1642356;85;20261;-82
2021/10/01 09:03:26;;;;;;;;;;;;;;;13.15;94.41;101453.97;1615772;87;20241;-82
2021/10/01 09:05:52;;;;;;;;;;;;;;;13.22;93.37;101447.14;1640327;85;20198;-81
2021/10/01 09:08:19;;;;;;;;;;;;;;;13.24;92.83;101447.00;1639317;85;20166;-82
2021/10/01 09:11:04;;;;;;;;;;;;;;;13.29;92.74;101445.58;1646665;85;20533;-82
2021/10/01 09:13:30;;;;;;;;;;;;;;;13.37;93.05;101447.55;1639506;85;20601;-82
2021/10/01 09:16:02;;;;;;;;;;;;;;;13.43;92.92;101448.80;1619565;86;20504;-84
2021/10/01 09:18:29;;;;;;;;;;;;;;;13.40;92.42;101449.09;1635620;86;21425;-82
2021/10/01 09:21:10;;;;;;;;;;;;;;;13.46;92.52;101447.20;1631914;86;20498;-84
2021/10/01 09:23:41;;;;;;;;;;;;;;;13.34;91.97;101449.66;1636824;86;22399;-83
2021/10/01 09:26:08;;;;;;;;;;;;;;;13.40;92.43;101441.13;1632044;86;20169;-89
2021/10/01 09:29:01;;;;;;;;;;;;;;;13.52;91.94;101443.97;1635080;86;20211;-88
2021/10/01 09:31:35;;;;;;;;;;;;;;;13.56;91.68;101449.31;1637917;86;20276;-83
2021/10/01 09:34:01;;;;;;;;;;;;;;;13.60;91.80;101442.75;1636625;87;20195;-80
2021/10/01 09:36:28;;;;;;;;;;;;;;;13.74;91.79;101448.59;1633929;86;21120;-83
2021/10/01 09:38:55;;;;;;;;;;;;;;;13.84;90.71;101445.39;1632589;87;20296;-82
2021/10/01 09:41:28;;;;;;;;;;;;;;;13.85;89.74;101448.40;1633280;86;20115;-84
2021/10/01 09:44:09;;;;;;;;;;;;;;;13.83;90.39;101447.72;1633760;87;20649;-90
2021/10/01 09:46:36;;;;;;;;;;;;;;;14.04;90.64;101451.95;1633599;87;20863;-85
2021/10/01 09:49:03;;;;;;;;;;;;;;;14.06;90.01;101444.67;1637910;86;21979;-82
2021/10/01 09:51:28;;;;;;;;;;;;;;;14.12;90.10;101446.73;1636262;86;20592;-78
2021/10/01 09:53:54;;;;;;;;;;;;;;;14.19;89.71;101448.66;1632839;86;20185;-85
2021/10/01 09:56:23;;;;;;;;;;;;;;;14.22;89.57;101445.38;1642566;86;20250;-85
2021/10/01 09:59:09;;;;;;;;;;;;;;;14.16;89.14;101446.30;1641151;85;20241;-88
2021/10/01 10:01:36;;;;;;;;;;;;;;;14.14;89.00;101442.14;1632029;86;21949;-85
2021/10/01 10:04:15;;;;;;;;;;;;;;;14.17;89.02;101444.00;1629267;86;20239;-84
2021/10/01 10:06:44;;;;;;;;;;;;;;;14.14;89.18;101444.80;1610193;87;20470;-81
2021/10/01 10:09:14;;;;;;;;;;;;;;;14.20;89.56;101445.53;1636464;87;20271;-83
2021/10/01 10:11:40;;;;;;;;;;;;;;;14.23;88.72;101443.91;1636423;85;20552;-81
2021/10/01 10:14:12;;;;;;;;;;;;;;;14.33;88.79;101450.48;1640736;87;21971;-81
2021/10/01 10:16:41;;;;;;;;;;;;;;;14.32;88.20;101445.64;1627566;86;37572;-82
2021/10/01 10:19:11;;;;;;;;;;;;;;;14.35;88.73;101438.70;1625993;86;20189;-82
2021/10/01 10:21:37;;;;;;;;;;;;;;;14.40;89.14;101445.41;1626919;87;20262;-84
2021/10/01 10:24:07;;;;;;;;;;;;;;;14.47;88.92;101446.48;1621308;86;20183;-79
2021/10/01 10:26:33;;;;;;;;;;;;;;;14.43;86.36;101435.80;1627584;86;21339;-82
2021/10/01 10:29:02;;;;;;;;;;;;;;;14.42;86.34;101439.44;1630459;86;20196;-87
2021/10/01 10:31:29;;;;;;;;;;;;;;;14.48;86.03;101434.84;1626804;86;20584;-85
2021/10/01 10:33:57;;;;;;;;;;;;;;;14.51;85.90;101426.58;1630435;86;20694;-81
2021/10/01 10:36:44;;;;;;;;;;;;;;;14.46;85.98;101424.88;1631295;86;20167;-83
2021/10/01 10:39:17;;;;;;;;;;;;;;;14.44;85.86;101427.67;1628425;87;21295;-82
2021/10/01 10:41:47;;;;;;;;;;;;;;;14.47;85.99;101429.21;1631371;86;20173;-81
2021/10/01 10:44:14;;;;;;;;;;;;;;;14.54;86.23;101424.47;1626626;86;20174;-80
2021/10/01 10:46:47;;;;;;;;;;;;;;;14.61;85.82;101426.05;1643350;85;20154;-83
2021/10/01 10:49:20;;;;;;;;;;;;;;;14.70;86.42;101427.81;1646392;86;20519;-82
2021/10/01 10:52:02;;;;;;;;;;;;;;;14.77;85.06;101424.03;1645412;85;20173;-81
2021/10/01 10:54:29;;;;;;;;;;;;;;;14.83;84.94;101422.09;1646879;85;20245;-84
2021/10/01 10:57:26;;;;;;;;;;;;;;;15.00;84.68;101422.25;1644381;86;20222;-88
2021/10/01 10:59:54;;;;;;;;;;;;;;;15.04;83.53;101420.97;1643427;86;20114;-82
2021/10/01 11:02:33;;;;;;;;;;;;;;;15.16;83.03;101410.89;1643629;85;20231;-82
2021/10/01 11:05:19;;;;;;;;;;;;;;;15.32;83.29;101408.36;1645778;86;20141;-89
2021/10/01 11:07:52;;;;;;;;;;;;;;;15.37;82.91;101408.71;1639789;86;20677;-88
2021/10/01 11:10:45;;;;;;;;;;;;;;;15.38;81.97;101402.41;1644918;86;20131;-81
2021/10/01 11:13:25;;;;;;;;;;;;;;;15.44;81.74;101401.78;1645479;86;20247;-84
2021/10/01 11:16:17;;;;;;;;;;;;;;;15.48;81.78;101402.80;1641130;86;20225;-82
2021/10/01 11:18:47;;;;;;;;;;;;;;;15.56;82.01;101401.50;1638865;86;21172;-82
2021/10/01 11:21:29;;;;;;;;;;;;;;;15.60;82.09;101388.22;1633886;86;20194;-83
2021/10/01 11:24:06;;;;;;;;;;;;;;;15.64;81.90;101391.39;1637576;86;20165;-82
2021/10/01 11:26:36;;;;;;;;;;;;;;;15.65;81.70;101383.25;1634958;86;20235;-81
2021/10/01 11:29:07;;;;;;;;;;;;;;;15.73;82.12;101383.27;1633612;86;20188;-88
2021/10/01 11:31:38;;;;;;;;;;;;;;;15.71;82.34;101383.94;1618018;86;21192;-87
2021/10/01 11:34:03;;;;;;;;;;;;;;;15.71;82.60;101379.95;1637752;87;20702;-85
2021/10/01 11:36:31;;;;;;;;;;;;;;;15.74;82.82;101376.96;1619318;87;20173;-85
2021/10/01 11:39:08;;;;;;;;;;;;;;;15.79;82.68;101384.00;1630642;86;20182;-86
2021/10/01 11:41:42;;;;;;;;;;;;;;;15.83;82.60;101375.18;1630196;86;20196;-85
2021/10/01 11:44:08;;;;;;;;;;;;;;;15.81;82.78;101375.84;1631970;87;21008;-86
2021/10/01 11:46:37;;;;;;;;;;;;;;;15.85;82.69;101380.34;1629452;86;20215;-84
2021/10/01 11:49:07;;;;;;;;;;;;;;;15.89;82.49;101377.71;1636761;86;20226;-83
2021/10/01 11:51:34;;;;;;;;;;;;;;;15.93;82.22;101380.40;1649106;86;20184;-85
2021/10/01 11:54:10;;;;;;;;;;;;;;;15.95;82.01;101377.06;1645722;86;20150;-84
2021/10/01 11:56:35;;;;;;;;;;;;;;;15.95;82.02;101379.73;1652250;86;21355;-87
2021/10/01 11:59:01;;;;;;;;;;;;;;;15.95;81.30;101381.06;1614663;88;20894;-83
2021/10/01 12:01:28;;;;;;;;;;;;;;;15.97;81.17;101375.06;1637293;86;20211;-80
2021/10/01 12:03:55;;;;;;;;;;;;;;;15.93;80.77;101375.07;1635737;86;20221;-84
2021/10/01 12:06:23;;;;;;;;;;;;;;;15.99;80.95;101375.76;1645412;86;20188;-83
2021/10/01 12:08:54;;;;;;;;;;;;;;;15.98;80.53;101372.75;1616319;86;21094;-85
2021/10/01 12:11:25;;;;;;;;;;;;;;;15.95;80.38;101371.73;1622072;87;20192;-82
2021/10/01 12:13:50;;;;;;;;;;;;;;;15.88;80.16;101368.04;1627051;87;20187;-88
2021/10/01 12:16:16;;;;;;;;;;;;;;;15.89;80.47;101365.72;1645233;85;20551;-83
2021/10/01 12:18:52;;;;;;;;;;;;;;;15.96;80.72;101365.42;1642389;85;20136;-83
2021/10/01 12:21:16;;;;;;;;;;;;;;;16.02;80.47;101367.44;1619050;88;20108;-82
2021/10/01 12:23:43;;;;;;;;;;;;;;;16.07;80.28;101365.12;1611508;87;20161;-83
2021/10/01 12:26:22;;;;;;;;;;;;;;;16.10;79.92;101363.45;1620885;87;20213;-87
2021/10/01 12:29:17;;;;;;;;;;;;;;;16.15;79.85;101357.13;1617875;87;20619;-83
2021/10/01 12:31:51;;;;;;;;;;;;;;;16.22;79.68;101352.00;1619059;87;20140;-83
2021/10/01 12:34:26;;;;;;;;;;;;;;;16.19;79.25;101346.15;1617693;86;21931;-79
2021/10/01 12:36:57;;;;;;;;;;;;;;;16.23;78.96;101352.83;1619072;87;20641;-82
2021/10/01 12:39:24;;;;;;;;;;;;;;;16.20;78.72;101342.50;1626452;86;20158;-84
2021/10/01 12:42:01;;;;;;;;;;;;;;;16.31;78.57;101343.50;1613960;87;20249;-81
2021/10/01 12:44:27;;;;;;;;;;;;;;;16.35;78.23;101336.03;1622693;87;20207;-86
2021/10/01 12:46:54;;;;;;;;;;;;;;;16.38;77.97;101326.38;1611164;87;21815;-84
2021/10/01 12:49:29;;;;;;;;;;;;;;;16.54;77.96;101333.54;1601324;87;20238;-86
2021/10/01 12:52:04;;;;;;;;;;;;;;;16.59;77.53;101329.86;1633594;86;20182;-83
2021/10/01 12:54:34;;;;;;;;;;;;;;;16.63;77.10;101327.20;1631072;86;20231;-84
2021/10/01 12:57:11;;;;;;;;;;;;;;;16.68;77.10;101321.69;1599392;86;20226;-85
2021/10/01 12:59:43;;;;;;;;;;;;;;;16.68;77.20;101316.86;1597490;87;21200;-80
2021/10/01 13:02:11;;;;;;;;;;;;;;;16.76;76.88;101316.84;1635082;85;20318;-82
2021/10/01 13:04:57;;;;;;;;;;;;;;;16.89;76.62;101312.86;1614926;87;20226;-84
2021/10/01 13:07:30;;;;;;;;;;;;;;;16.95;75.54;101310.85;1626895;86;20469;-85
2021/10/01 13:09:56;;;;;;;;;;;;;;;17.07;75.23;101311.34;1625555;86;20166;-87
2021/10/01 13:12:28;;;;;;;;;;;;;;;17.13;74.95;101305.32;1630920;86;21086;-83
2021/10/01 13:15:14;;;;;;;;;;;;;;;17.34;75.08;101304.73;1628227;86;20230;-83
2021/10/01 13:17:39;;;;;;;;;;;;;;;17.52;74.60;101302.67;1631456;86;20185;-83
2021/10/01 13:20:07;;;;;;;;;;;;;;;17.68;73.42;101295.10;1626598;87;20178;-83
2021/10/01 13:22:57;;;;;;;;;;;;;;;17.81;71.94;101292.37;1610845;87;20192;-81
2021/10/01 13:25:31;;;;;;;;;;;;;;;18.06;71.69;101294.41;1614130;87;22013;-86
2021/10/01 13:27:57;;;;;;;;;;;;;;;18.29;70.88;101297.09;1615426;87;20140;-87
2021/10/01 13:30:22;;;;;;;;;;;;;;;18.35;69.78;101287.50;1612827;88;20346;-83
2021/10/01 13:32:49;;;;;;;;;;;;;;;18.46;68.61;101285.23;1614939;88;20485;-84
2021/10/01 13:35:16;;;;;;;;;;;;;;;18.69;68.23;101287.55;1629171;87;20217;-84
2021/10/01 13:37:43;;;;;;;;;;;;;;;18.93;67.70;101284.66;1629535;87;21134;-80
2021/10/01 13:40:11;;;;;;;;;;;;;;;19.01;66.00;101280.55;1617512;88;20193;-90
2021/10/01 13:42:36;;;;;;;;;;;;;;;19.21;65.19;101270.63;1627409;86;20230;-85
2021/10/01 13:45:03;;;;;;;;;;;;;;;19.46;64.09;101268.98;1631365;86;20147;-81
2021/10/01 13:47:32;;;;;;;;;;;;;;;19.74;62.87;101270.45;1629332;86;20246;-86
2021/10/01 13:49:58;;;;;;;;;;;;;;;20.03;62.44;101262.84;1614296;87;21118;-82
2021/10/01 13:52:25;;;;;;;;;;;;;;;20.41;62.03;101265.23;1620628;87;20188;-84
2021/10/01 13:54:50;;;;;;;;;;;;;;;20.62;59.68;101265.72;1616934;87;20186;-87
2021/10/01 13:57:16;;;;;;;;;;;;;;;20.71;58.54;101261.07;1617073;87;21242;-80
2021/10/01 13:59:42;;;;;;;;;;;;;;;20.95;58.58;101257.08;1628847;87;20161;-81
2021/10/01 14:02:09;;;;;;;;;;;;;;;21.39;57.93;101259.05;1631044;86;21125;-83
2021/10/01 14:04:34;;;;;;;;;;;;;;;21.66;54.66;101256.50;1619920;86;20231;-83
2021/10/01 14:07:00;;;;;;;;;;;;;;;22.05;54.85;101249.54;1646255;85;20173;-84
2021/10/01 14:09:25;;;;;;;;;;;;;;;25.42;46.60;101249.95;1644015;85;20448;-81
2021/10/01 14:11:52;;;;;;;;;;;;;;;28.39;40.12;101244.97;1639644;85;20145;-82
2021/10/01 14:14:18;;;;;;;;;;;;;;;26.83;41.78;101251.30;1632881;86;21958;-81
2021/10/01 14:16:43;;;;;;;;;;;;;;;27.70;40.17;101248.68;1620387;87;20203;-81